< < Back
Terminal Aerodrome Forecast


Current Version              Previous Versions:   1  2  3  4  5  6  7  8  9  

Terminal Aerodrome Forecast

247
FTAK31 PAJN 211700
TAFAGS
TAF
PAGS 211730Z 2118/2218 33005KT 6SM -RA BR FEW006 SCT020 OVC040
     FM212300 VRB05KT 5SM -RA BR BKN015 OVC030 WS020/15045KT
     FM220300 14012G22KT 6SM -RA BR SCT010 OVC025 WS020/16040KT
     FM220700 14010KT 6SM -SHRA BR SCT015 OVC030
     FM221300 14007KT P6SM -SHRA SCT020 OVC040
      AMD NOT SKED=



Latest METAR

485
SAUS70 KWBC 212200
MTRAGS
METAR KAGS 212153Z 27011KT 10SM CLR 31/16 A2989 RMK AO2 SLP120
T03060161


USA.gov is the U.S. government's official web portal to all federal, state and local government web resources and services.